NOVEMBER 23, 2017

 

METAR SMJP 232000Z 08007KT 9999 FEW025CB 32/22 Q1009 NOSIG=

METAR SMZO 232000Z 07008KT 9999 FEW025CB SCT030 31/24 Q1009 NOSIG=

METAR SMNI 232000Z 06014KT 9999 FEW025CB 29/24 Q1009=

METAR SMST 231800Z 00000KT 9999 SCT030 ///// Q////=